createdAt,value
2018-12-14T00:00:37.121Z,955.73
2018-12-14T00:01:37.100Z,955.71
2018-12-14T00:02:37.080Z,955.69
2018-12-14T00:03:37.059Z,955.69
2018-12-14T00:04:37.038Z,955.75
2018-12-14T00:05:37.018Z,955.72
2018-12-14T00:06:36.996Z,955.7
2018-12-14T00:07:36.975Z,955.7
2018-12-14T00:08:36.954Z,955.75
2018-12-14T00:09:36.933Z,955.71
2018-12-14T00:10:36.913Z,955.71
2018-12-14T00:11:36.891Z,955.73
2018-12-14T00:12:36.870Z,955.77
2018-12-14T00:13:36.848Z,955.75
2018-12-14T00:14:36.827Z,955.75
2018-12-14T00:15:36.807Z,955.74
2018-12-14T00:16:36.787Z,955.69
2018-12-14T00:17:36.763Z,955.75
2018-12-14T00:18:36.744Z,955.74
2018-12-14T00:19:36.723Z,955.68
2018-12-14T00:20:36.701Z,955.69
2018-12-14T00:21:36.680Z,955.76
2018-12-14T00:22:36.660Z,955.72
2018-12-14T00:23:36.641Z,955.73
2018-12-14T00:24:36.619Z,955.75
2018-12-14T00:25:36.598Z,955.75
2018-12-14T00:26:36.577Z,955.76
2018-12-14T00:27:36.558Z,955.75
2018-12-14T00:28:36.535Z,955.76
2018-12-14T00:29:36.514Z,955.8
2018-12-14T00:30:36.494Z,955.76
2018-12-14T00:31:36.473Z,955.76
2018-12-14T00:32:36.453Z,955.74
2018-12-14T00:33:36.431Z,955.73
2018-12-14T00:34:36.410Z,955.74
2018-12-14T00:35:36.389Z,955.76
2018-12-14T00:36:36.368Z,955.69
2018-12-14T00:37:36.348Z,955.77
2018-12-14T00:38:36.328Z,955.76
2018-12-14T00:39:36.306Z,955.75
2018-12-14T00:40:36.287Z,955.74
2018-12-14T00:41:36.266Z,955.74
2018-12-14T00:42:36.244Z,955.74
2018-12-14T00:43:36.223Z,955.76
2018-12-14T00:44:36.201Z,955.82
2018-12-14T00:45:36.181Z,955.79
2018-12-14T00:46:36.160Z,955.8
2018-12-14T00:47:36.142Z,955.8
2018-12-14T00:48:36.120Z,955.77
2018-12-14T00:49:36.134Z,955.76
2018-12-14T00:50:36.129Z,955.8
2018-12-14T00:51:36.056Z,955.81
2018-12-14T00:52:36.034Z,955.82
2018-12-14T00:53:36.012Z,955.83
2018-12-14T00:54:35.992Z,955.89
2018-12-14T00:55:35.972Z,955.85
2018-12-14T00:56:35.951Z,955.88
2018-12-14T00:57:35.929Z,955.9
2018-12-14T00:58:35.911Z,955.88
2018-12-14T00:59:35.888Z,955.92
2018-12-14T01:00:35.866Z,955.92
2018-12-14T01:01:35.846Z,955.93
2018-12-14T01:02:35.826Z,955.91
2018-12-14T01:03:35.805Z,955.89
2018-12-14T01:04:35.783Z,955.9
2018-12-14T01:05:35.763Z,955.91
2018-12-14T01:06:35.742Z,955.9
2018-12-14T01:07:35.721Z,955.91
2018-12-14T01:08:35.699Z,955.88
2018-12-14T01:09:35.679Z,955.87
2018-12-14T01:10:35.657Z,955.88
2018-12-14T01:11:35.637Z,955.86
2018-12-14T01:12:35.616Z,955.91
2018-12-14T01:13:35.595Z,955.91
2018-12-14T01:14:35.578Z,955.91
2018-12-14T01:15:35.652Z,955.87
2018-12-14T01:16:35.533Z,955.9
2018-12-14T01:17:35.512Z,955.91
2018-12-14T01:18:35.494Z,955.89
2018-12-14T01:19:35.470Z,955.97
2018-12-14T01:20:35.450Z,955.93
2018-12-14T01:21:35.428Z,955.94
2018-12-14T01:22:35.406Z,955.97
2018-12-14T01:23:35.386Z,956.02
2018-12-14T01:24:35.366Z,955.99
2018-12-14T01:25:35.346Z,956
2018-12-14T01:26:35.324Z,955.97
2018-12-14T01:27:35.305Z,955.98
2018-12-14T01:28:35.282Z,955.99
2018-12-14T01:29:35.263Z,955.97
2018-12-14T01:30:35.242Z,956.01
2018-12-14T01:31:35.219Z,956
2018-12-14T01:32:35.201Z,955.99
2018-12-14T01:33:35.184Z,955.98
2018-12-14T01:34:35.163Z,955.97
2018-12-14T01:35:35.136Z,955.95
2018-12-14T01:36:35.117Z,955.97
2018-12-14T01:37:35.095Z,955.96
2018-12-14T01:38:35.074Z,955.94
2018-12-14T01:39:35.053Z,955.92
2018-12-14T01:40:35.031Z,955.92
2018-12-14T01:41:35.014Z,955.94
2018-12-14T01:42:34.991Z,955.93
2018-12-14T01:43:34.970Z,955.95
2018-12-14T01:44:34.949Z,955.91
2018-12-14T01:45:34.928Z,955.97
2018-12-14T01:46:34.907Z,955.93
2018-12-14T01:47:34.887Z,955.92
2018-12-14T01:48:34.865Z,955.92
2018-12-14T01:49:34.845Z,955.92
2018-12-14T01:50:34.824Z,955.94
2018-12-14T01:51:34.803Z,955.88
2018-12-14T01:52:34.782Z,955.92
2018-12-14T01:53:34.761Z,955.85
2018-12-14T01:54:34.741Z,955.86
2018-12-14T01:55:34.719Z,955.9
2018-12-14T01:56:34.699Z,955.85
2018-12-14T01:57:34.678Z,955.84
2018-12-14T01:58:34.656Z,955.85
2018-12-14T01:59:34.636Z,955.79
2018-12-14T02:00:34.617Z,955.81
2018-12-14T02:01:34.644Z,955.81
2018-12-14T02:02:34.573Z,955.84
2018-12-14T02:03:34.553Z,955.8
2018-12-14T02:04:34.890Z,955.81
2018-12-14T02:05:34.511Z,955.85
2018-12-14T02:06:34.489Z,955.79
2018-12-14T02:07:34.469Z,955.82
2018-12-14T02:08:34.449Z,955.82
2018-12-14T02:09:34.428Z,955.83
2018-12-14T02:10:34.406Z,955.84
2018-12-14T02:11:34.386Z,955.81
2018-12-14T02:12:34.366Z,955.82
2018-12-14T02:13:34.373Z,955.84
2018-12-14T02:14:34.324Z,955.82
2018-12-14T02:15:34.303Z,955.8
2018-12-14T02:16:34.283Z,955.81
2018-12-14T02:17:34.261Z,955.77
2018-12-14T02:18:34.240Z,955.76
2018-12-14T02:19:34.218Z,955.79
2018-12-14T02:20:34.200Z,955.76
2018-12-14T02:21:34.176Z,955.76
2018-12-14T02:22:34.157Z,955.76
2018-12-14T02:23:34.139Z,955.7
2018-12-14T02:24:34.118Z,955.77
2018-12-14T02:25:34.096Z,955.77
2018-12-14T02:26:34.077Z,955.78
2018-12-14T02:27:34.053Z,955.76
2018-12-14T02:28:34.031Z,955.78
2018-12-14T02:29:34.012Z,955.77
2018-12-14T02:30:33.991Z,955.77
2018-12-14T02:31:33.970Z,955.73
2018-12-14T02:32:33.949Z,955.7
2018-12-14T02:33:33.934Z,955.73
2018-12-14T02:34:33.908Z,955.71
2018-12-14T02:35:33.885Z,955.71
2018-12-14T02:36:33.865Z,955.69
2018-12-14T02:37:33.851Z,955.69
2018-12-14T02:38:33.823Z,955.7
2018-12-14T02:39:33.803Z,955.66
2018-12-14T02:40:33.781Z,955.64
2018-12-14T02:41:33.761Z,955.62
2018-12-14T02:42:33.740Z,955.65
2018-12-14T02:43:33.717Z,955.64
2018-12-14T02:44:33.699Z,955.64
2018-12-14T02:45:33.677Z,955.67
2018-12-14T02:46:33.655Z,955.7
2018-12-14T02:47:33.639Z,955.67
2018-12-14T02:48:33.614Z,955.67
2018-12-14T02:49:33.593Z,955.68
2018-12-14T02:50:33.571Z,955.68
2018-12-14T02:51:33.553Z,955.63
2018-12-14T02:52:33.533Z,955.66
2018-12-14T02:53:33.515Z,955.65
2018-12-14T02:54:33.487Z,955.68
2018-12-14T02:55:33.468Z,955.64
2018-12-14T02:56:33.450Z,955.59
2018-12-14T02:57:33.424Z,955.63
2018-12-14T02:58:33.406Z,955.63
2018-12-14T02:59:33.393Z,955.61
2018-12-14T03:00:33.365Z,955.64
2018-12-14T03:01:33.341Z,955.64
2018-12-14T03:02:33.319Z,955.67
2018-12-14T03:03:33.299Z,955.66
2018-12-14T03:04:33.279Z,955.69
2018-12-14T03:05:33.257Z,955.67
2018-12-14T03:06:33.237Z,955.7
2018-12-14T03:07:33.217Z,955.68
2018-12-14T03:08:33.196Z,955.7
2018-12-14T03:09:33.174Z,955.73
2018-12-14T03:10:33.158Z,955.69
2018-12-14T03:11:33.132Z,955.7
2018-12-14T03:12:33.112Z,955.7
2018-12-14T03:13:33.090Z,955.68
2018-12-14T03:14:33.070Z,955.68
2018-12-14T03:15:33.049Z,955.71
2018-12-14T03:16:33.027Z,955.68
2018-12-14T03:17:33.007Z,955.68
2018-12-14T03:18:32.986Z,955.7
2018-12-14T03:19:32.963Z,955.68
2018-12-14T03:20:32.944Z,955.69
2018-12-14T03:21:32.927Z,955.7
2018-12-14T03:22:32.902Z,955.71
2018-12-14T03:23:32.880Z,955.75
2018-12-14T03:24:32.860Z,955.69
2018-12-14T03:25:32.839Z,955.75
2018-12-14T03:26:32.819Z,955.71
2018-12-14T03:27:32.797Z,955.75
2018-12-14T03:28:32.777Z,955.74
2018-12-14T03:29:32.757Z,955.66
2018-12-14T03:30:32.745Z,955.71
2018-12-14T03:31:32.715Z,955.68
2018-12-14T03:32:32.696Z,955.68
2018-12-14T03:33:32.675Z,955.68
2018-12-14T03:34:32.650Z,955.71
2018-12-14T03:35:32.628Z,955.74
2018-12-14T03:36:32.609Z,955.72
2018-12-14T03:37:32.588Z,955.74
2018-12-14T03:38:32.602Z,955.73
2018-12-14T03:39:32.547Z,955.73
2018-12-14T03:40:32.525Z,955.75
2018-12-14T03:41:32.503Z,955.75
2018-12-14T03:42:34.472Z,955.74
2018-12-14T03:43:32.462Z,955.77
2018-12-14T03:44:32.444Z,955.8
2018-12-14T03:45:32.421Z,955.76
2018-12-14T03:46:32.398Z,955.78
2018-12-14T03:47:32.378Z,955.76
2018-12-14T03:48:32.357Z,955.74
2018-12-14T03:49:32.342Z,955.73
2018-12-14T03:50:32.315Z,955.76
2018-12-14T03:51:32.295Z,955.77
2018-12-14T03:52:32.272Z,955.77
2018-12-14T03:53:32.253Z,955.78
2018-12-14T03:54:32.230Z,955.74
2018-12-14T03:55:32.209Z,955.73
2018-12-14T03:56:32.189Z,955.76
2018-12-14T03:57:32.171Z,955.75
2018-12-14T03:58:32.146Z,955.74
2018-12-14T03:59:32.125Z,955.74
2018-12-14T04:00:32.110Z,955.75
2018-12-14T04:01:32.084Z,955.78
2018-12-14T04:02:32.065Z,955.74
2018-12-14T04:03:32.042Z,955.73
2018-12-14T04:04:32.020Z,955.77
2018-12-14T04:05:32.000Z,955.74
2018-12-14T04:06:31.979Z,955.72
2018-12-14T04:07:31.959Z,955.76
2018-12-14T04:08:31.937Z,955.74
2018-12-14T04:09:31.914Z,955.77
2018-12-14T04:10:31.895Z,955.81
2018-12-14T04:11:31.874Z,955.76
2018-12-14T04:12:31.852Z,955.78
2018-12-14T04:13:31.832Z,955.79
2018-12-14T04:14:31.810Z,955.77
2018-12-14T04:15:31.791Z,955.79
2018-12-14T04:16:31.768Z,955.82
2018-12-14T04:17:31.750Z,955.79
2018-12-14T04:18:31.726Z,955.76
2018-12-14T04:19:31.704Z,955.78
2018-12-14T04:20:31.682Z,955.77
2018-12-14T04:21:31.662Z,955.78
2018-12-14T04:22:31.641Z,955.74
2018-12-14T04:23:31.624Z,955.77
2018-12-14T04:24:31.599Z,955.72
2018-12-14T04:25:31.577Z,955.76
2018-12-14T04:26:31.556Z,955.75
2018-12-14T04:27:31.537Z,955.74
2018-12-14T04:28:31.515Z,955.72
2018-12-14T04:29:31.493Z,955.75
2018-12-14T04:30:31.472Z,955.75
2018-12-14T04:31:31.457Z,955.73
2018-12-14T04:32:31.428Z,955.74
2018-12-14T04:33:31.408Z,955.72
2018-12-14T04:34:31.387Z,955.76
2018-12-14T04:35:31.366Z,955.75
2018-12-14T04:36:31.348Z,955.76
2018-12-14T04:37:31.323Z,955.79
2018-12-14T04:38:31.303Z,955.76
2018-12-14T04:39:31.349Z,955.81
2018-12-14T04:40:31.260Z,955.85
2018-12-14T04:41:31.239Z,955.87
2018-12-14T04:42:31.218Z,955.86
2018-12-14T04:43:31.195Z,955.9
2018-12-14T04:44:31.174Z,955.9
2018-12-14T04:45:31.153Z,955.9
2018-12-14T04:46:31.132Z,955.88
2018-12-14T04:47:31.110Z,955.92
2018-12-14T04:48:31.089Z,955.94
2018-12-14T04:49:31.068Z,955.94
2018-12-14T04:50:31.050Z,955.96
2018-12-14T04:51:31.024Z,955.93
2018-12-14T04:52:31.003Z,955.9
2018-12-14T04:53:30.982Z,955.93
2018-12-14T04:54:30.961Z,955.9
2018-12-14T04:55:30.938Z,955.91
2018-12-14T04:56:30.919Z,955.95
2018-12-14T04:57:30.895Z,955.94
2018-12-14T04:58:30.874Z,955.91
2018-12-14T04:59:30.852Z,955.88
2018-12-14T05:00:30.862Z,955.96
2018-12-14T05:01:30.809Z,955.97
2018-12-14T05:02:30.787Z,955.98
2018-12-14T05:03:30.766Z,955.95
2018-12-14T05:04:30.743Z,955.98
2018-12-14T05:05:30.722Z,955.97
2018-12-14T05:06:31.509Z,955.97
2018-12-14T05:07:30.678Z,955.98
2018-12-14T05:08:30.656Z,956.02
2018-12-14T05:09:30.634Z,956.05
2018-12-14T05:10:30.613Z,956.03
2018-12-14T05:11:30.591Z,956.07
2018-12-14T05:12:30.570Z,956.03
2018-12-14T05:13:30.548Z,956.1
2018-12-14T05:14:30.526Z,956.12
2018-12-14T05:15:30.505Z,956.13
2018-12-14T05:16:30.482Z,956.15
2018-12-14T05:17:30.463Z,956.12
2018-12-14T05:18:30.439Z,956.14
2018-12-14T05:19:30.417Z,956.17
2018-12-14T05:20:30.394Z,956.17
2018-12-14T05:21:30.373Z,956.1
2018-12-14T05:22:30.351Z,956.1
2018-12-14T05:23:30.331Z,956.13
2018-12-14T05:24:30.307Z,956.17
2018-12-14T05:25:30.285Z,956.16
2018-12-14T05:26:30.281Z,956.17
2018-12-14T05:27:30.242Z,956.13
2018-12-14T05:28:30.220Z,956.15
2018-12-14T05:29:30.205Z,956.21
2018-12-14T05:30:30.177Z,956.22
2018-12-14T05:31:30.154Z,956.21
2018-12-14T05:32:30.134Z,956.19
2018-12-14T05:33:30.120Z,956.16
2018-12-14T05:34:30.090Z,956.26
2018-12-14T05:35:30.069Z,956.19
2018-12-14T05:36:30.045Z,956.23
2018-12-14T05:37:30.030Z,956.17
2018-12-14T05:38:30.003Z,956.14
2018-12-14T05:39:29.980Z,956.21
2018-12-14T05:40:29.962Z,956.19
2018-12-14T05:41:31.305Z,956.16
2018-12-14T05:42:29.915Z,956.15
2018-12-14T05:43:29.894Z,956.14
2018-12-14T05:44:29.873Z,956.13
2018-12-14T05:45:29.850Z,956.18
2018-12-14T05:46:29.829Z,956.12
2018-12-14T05:47:29.807Z,956.1
2018-12-14T05:48:29.785Z,956.11
2018-12-14T05:49:29.762Z,956.14
2018-12-14T05:50:29.742Z,956.12
2018-12-14T05:51:29.720Z,956.16
2018-12-14T05:52:29.699Z,956.16
2018-12-14T05:53:29.676Z,956.17
2018-12-14T05:54:29.656Z,956.15
2018-12-14T05:55:29.632Z,956.17
2018-12-14T05:56:29.610Z,956.15
2018-12-14T05:57:29.589Z,956.19
2018-12-14T05:58:29.567Z,956.21
2018-12-14T05:59:29.546Z,956.18
2018-12-14T06:00:29.524Z,956.19
2018-12-14T06:01:29.503Z,956.2
2018-12-14T06:02:29.480Z,956.19
2018-12-14T06:03:29.460Z,956.23
2018-12-14T06:04:29.436Z,956.2
2018-12-14T06:05:29.416Z,956.18
2018-12-14T06:06:29.394Z,956.2
2018-12-14T06:07:29.371Z,956.17
2018-12-14T06:08:29.351Z,956.17
2018-12-14T06:09:29.330Z,956.21
2018-12-14T06:10:29.308Z,956.25
2018-12-14T06:11:29.285Z,956.19
2018-12-14T06:12:29.263Z,956.24
2018-12-14T06:13:29.245Z,956.25
2018-12-14T06:14:29.219Z,956.26
2018-12-14T06:15:29.197Z,956.3
2018-12-14T06:16:29.176Z,956.36
2018-12-14T06:17:29.157Z,956.36
2018-12-14T06:18:29.132Z,956.35
2018-12-14T06:19:29.111Z,956.35
2018-12-14T06:20:29.088Z,956.36
2018-12-14T06:21:29.067Z,956.35
2018-12-14T06:22:29.045Z,956.35
2018-12-14T06:23:29.024Z,956.4
2018-12-14T06:24:29.001Z,956.36
2018-12-14T06:25:28.984Z,956.38
2018-12-14T06:26:28.957Z,956.43
2018-12-14T06:27:28.935Z,956.41
2018-12-14T06:28:28.914Z,956.46
2018-12-14T06:29:28.892Z,956.47
2018-12-14T06:30:28.872Z,956.44
2018-12-14T06:31:28.848Z,956.43
2018-12-14T06:32:28.825Z,956.48
2018-12-14T06:33:28.802Z,956.47
2018-12-14T06:34:28.780Z,956.46
2018-12-14T06:35:28.759Z,956.48
2018-12-14T06:36:28.737Z,956.47
2018-12-14T06:37:28.714Z,956.5
2018-12-14T06:38:28.693Z,956.49
2018-12-14T06:39:28.669Z,956.47
2018-12-14T06:40:28.647Z,956.51
2018-12-14T06:41:28.626Z,956.46
2018-12-14T06:42:28.605Z,956.48
2018-12-14T06:43:28.582Z,956.49
2018-12-14T06:44:28.562Z,956.49
2018-12-14T06:45:28.539Z,956.51
2018-12-14T06:46:28.515Z,956.54
2018-12-14T06:47:28.492Z,956.48
2018-12-14T06:48:28.469Z,956.55
2018-12-14T06:49:28.453Z,956.56
2018-12-14T06:50:28.426Z,956.57
2018-12-14T06:51:28.403Z,956.55
2018-12-14T06:52:28.381Z,956.53
2018-12-14T06:53:28.360Z,956.54
2018-12-14T06:54:28.337Z,956.56
2018-12-14T06:55:28.313Z,956.57
2018-12-14T06:56:28.293Z,956.55
2018-12-14T06:57:28.271Z,956.55
2018-12-14T06:58:28.248Z,956.52
2018-12-14T06:59:28.228Z,956.55
2018-12-14T07:00:28.203Z,956.61
2018-12-14T07:01:28.183Z,956.58
2018-12-14T07:02:28.159Z,956.6
2018-12-14T07:03:28.137Z,956.62
2018-12-14T07:04:28.115Z,956.62
2018-12-14T07:05:28.094Z,956.63
2018-12-14T07:06:28.070Z,956.64
2018-12-14T07:07:28.047Z,956.64
2018-12-14T07:08:28.027Z,956.68
2018-12-14T07:09:28.004Z,956.68
2018-12-14T07:10:27.982Z,956.67
2018-12-14T07:11:27.961Z,956.63
2018-12-14T07:12:27.939Z,956.64
2018-12-14T07:13:27.918Z,956.65
2018-12-14T07:14:27.894Z,956.63
2018-12-14T07:15:27.872Z,956.67
2018-12-14T07:16:27.850Z,956.66
2018-12-14T07:17:27.827Z,956.65
2018-12-14T07:18:27.806Z,956.63
2018-12-14T07:19:28.629Z,956.62
2018-12-14T07:20:27.761Z,956.61
2018-12-14T07:21:27.740Z,956.65
2018-12-14T07:22:27.718Z,956.62
2018-12-14T07:23:27.696Z,956.64
2018-12-14T07:24:27.674Z,956.66
2018-12-14T07:25:27.653Z,956.7
2018-12-14T07:26:27.630Z,956.67
2018-12-14T07:27:27.608Z,956.7
2018-12-14T07:28:27.585Z,956.66
2018-12-14T07:29:27.564Z,956.68
2018-12-14T07:30:27.542Z,956.72
2018-12-14T07:31:27.519Z,956.71
2018-12-14T07:32:27.497Z,956.7
2018-12-14T07:33:27.476Z,956.71
2018-12-14T07:34:27.454Z,956.72
2018-12-14T07:35:27.431Z,956.73
2018-12-14T07:36:27.409Z,956.75
2018-12-14T07:37:27.388Z,956.75
2018-12-14T07:38:27.366Z,956.77
2018-12-14T07:39:27.345Z,956.75
2018-12-14T07:40:27.328Z,956.82
2018-12-14T07:41:27.302Z,956.82
2018-12-14T07:42:27.278Z,956.83
2018-12-14T07:43:28.346Z,956.82
2018-12-14T07:44:27.310Z,956.83
2018-12-14T07:45:27.215Z,956.83
2018-12-14T07:46:27.191Z,956.76
2018-12-14T07:47:27.171Z,956.8
2018-12-14T07:48:27.149Z,956.87
2018-12-14T07:49:27.128Z,956.91
2018-12-14T07:50:27.105Z,956.88
2018-12-14T07:51:27.086Z,956.87
2018-12-14T07:52:27.061Z,956.88
2018-12-14T07:53:27.041Z,956.92
2018-12-14T07:54:27.019Z,956.88
2018-12-14T07:55:26.999Z,956.92
2018-12-14T07:56:26.975Z,956.89
2018-12-14T07:57:26.954Z,956.94
2018-12-14T07:58:26.933Z,956.89
2018-12-14T07:59:26.911Z,956.95
2018-12-14T08:00:26.890Z,957.01
2018-12-14T08:01:26.869Z,957
2018-12-14T08:02:26.847Z,956.96
2018-12-14T08:03:26.826Z,957.02
2018-12-14T08:04:26.804Z,957
2018-12-14T08:05:26.783Z,957.05
2018-12-14T08:06:26.760Z,957.04
2018-12-14T08:07:26.740Z,957.03
2018-12-14T08:08:26.718Z,957.07
2018-12-14T08:09:26.698Z,957.04
2018-12-14T08:10:26.677Z,957.03
2018-12-14T08:11:26.655Z,957
2018-12-14T08:12:26.635Z,956.98
2018-12-14T08:13:26.613Z,956.98
2018-12-14T08:14:26.592Z,957.06
2018-12-14T08:15:26.569Z,957.05
2018-12-14T08:16:26.550Z,957.05
2018-12-14T08:17:26.529Z,957.07
2018-12-14T08:18:26.508Z,957.07
2018-12-14T08:19:26.488Z,957.08
2018-12-14T08:20:26.466Z,957.07
2018-12-14T08:21:26.446Z,957.08
2018-12-14T08:22:26.423Z,957.04
2018-12-14T08:23:26.402Z,957.06
2018-12-14T08:24:26.382Z,957.09
2018-12-14T08:25:26.362Z,957.1
2018-12-14T08:26:26.339Z,957.05
2018-12-14T08:27:26.319Z,957.09
2018-12-14T08:28:26.299Z,957.1
2018-12-14T08:29:26.278Z,957.12
2018-12-14T08:30:26.257Z,957.17
2018-12-14T08:31:26.237Z,957.12
2018-12-14T08:32:26.220Z,957.12
2018-12-14T08:33:26.195Z,957.17
2018-12-14T08:34:26.173Z,957.17
2018-12-14T08:35:26.154Z,957.22
2018-12-14T08:36:26.134Z,957.2
2018-12-14T08:37:26.112Z,957.21
2018-12-14T08:38:26.092Z,957.21
2018-12-14T08:39:26.071Z,957.22
2018-12-14T08:40:26.051Z,957.24
2018-12-14T08:41:26.030Z,957.29
2018-12-14T08:42:26.010Z,957.23
2018-12-14T08:43:25.988Z,957.26
2018-12-14T08:44:25.968Z,957.29
2018-12-14T08:45:25.948Z,957.29
2018-12-14T08:46:25.928Z,957.29
2018-12-14T08:47:26.172Z,957.24
2018-12-14T08:48:25.886Z,957.27
2018-12-14T08:49:25.866Z,957.3
2018-12-14T08:50:25.846Z,957.29
2018-12-14T08:51:25.827Z,957.31
2018-12-14T08:52:25.805Z,957.31
2018-12-14T08:53:25.785Z,957.34
2018-12-14T08:54:25.767Z,957.38
2018-12-14T08:55:25.743Z,957.36
2018-12-14T08:56:25.723Z,957.39
2018-12-14T08:57:25.703Z,957.39
2018-12-14T08:58:25.682Z,957.43
2018-12-14T08:59:25.665Z,957.43
2018-12-14T09:00:25.643Z,957.45
2018-12-14T09:01:25.623Z,957.48
2018-12-14T09:02:25.663Z,957.49
2018-12-14T09:03:25.582Z,957.54
2018-12-14T09:04:25.567Z,957.53
2018-12-14T09:05:25.541Z,957.55
2018-12-14T09:06:25.544Z,957.53
2018-12-14T09:07:25.500Z,957.58
2018-12-14T09:08:25.481Z,957.58
2018-12-14T09:09:25.460Z,957.57
2018-12-14T09:10:25.442Z,957.54
2018-12-14T09:11:25.421Z,957.62
2018-12-14T09:12:25.401Z,957.59
2018-12-14T09:13:25.380Z,957.61
2018-12-14T09:14:25.360Z,957.64
2018-12-14T09:15:25.340Z,957.69
2018-12-14T09:16:25.321Z,957.71
2018-12-14T09:17:25.299Z,957.71
2018-12-14T09:18:25.280Z,957.68
2018-12-14T09:19:25.263Z,957.73
2018-12-14T09:20:25.241Z,957.72
2018-12-14T09:21:25.220Z,957.73
2018-12-14T09:22:25.200Z,957.73
2018-12-14T09:23:25.180Z,957.78
2018-12-14T09:24:25.160Z,957.78
2018-12-14T09:25:25.140Z,957.81
2018-12-14T09:26:25.121Z,957.8
2018-12-14T09:27:25.101Z,957.73
2018-12-14T09:28:25.081Z,957.74
2018-12-14T09:29:25.065Z,957.72
2018-12-14T09:30:25.042Z,957.75
2018-12-14T09:31:25.088Z,957.67
2018-12-14T09:32:25.000Z,957.72
2018-12-14T09:33:24.983Z,957.7
2018-12-14T09:34:24.962Z,957.68
2018-12-14T09:35:24.943Z,957.73
2018-12-14T09:36:24.924Z,957.67
2018-12-14T09:37:24.903Z,957.66
2018-12-14T09:38:24.885Z,957.67
2018-12-14T09:39:24.863Z,957.69
2018-12-14T09:40:24.843Z,957.67
2018-12-14T09:41:24.826Z,957.68
2018-12-14T09:42:24.805Z,957.68
2018-12-14T09:43:24.785Z,957.7
2018-12-14T09:44:24.766Z,957.71
2018-12-14T09:45:24.746Z,957.65
2018-12-14T09:46:24.727Z,957.67
2018-12-14T09:47:24.706Z,957.65
2018-12-14T09:48:24.688Z,957.65
2018-12-14T09:49:24.669Z,957.66
2018-12-14T09:50:24.648Z,957.65
2018-12-14T09:51:24.628Z,957.64
2018-12-14T09:52:24.610Z,957.64
2018-12-14T09:53:24.591Z,957.68
2018-12-14T09:54:24.574Z,957.67
2018-12-14T09:55:24.551Z,957.71
2018-12-14T09:56:24.532Z,957.74
2018-12-14T09:57:24.513Z,957.75
2018-12-14T09:58:24.494Z,957.71
2018-12-14T09:59:24.475Z,957.76
2018-12-14T10:00:24.454Z,957.74
2018-12-14T10:01:24.435Z,957.75
2018-12-14T10:02:24.415Z,957.69
2018-12-14T10:03:24.397Z,957.7
2018-12-14T10:04:24.379Z,957.7
2018-12-14T10:05:24.358Z,957.68
2018-12-14T10:06:24.339Z,957.72
2018-12-14T10:07:24.321Z,957.72
2018-12-14T10:08:24.301Z,957.74
2018-12-14T10:09:24.281Z,957.7
2018-12-14T10:10:24.272Z,957.72
2018-12-14T10:11:24.244Z,957.73
2018-12-14T10:12:24.226Z,957.7
2018-12-14T10:13:24.207Z,957.72
2018-12-14T10:14:24.186Z,957.7
2018-12-14T10:15:24.166Z,957.66
2018-12-14T10:16:24.148Z,957.69
2018-12-14T10:17:24.129Z,957.73
2018-12-14T10:18:24.113Z,957.72
2018-12-14T10:19:24.091Z,957.72
2018-12-14T10:20:24.072Z,957.7
2018-12-14T10:21:24.053Z,957.68
2018-12-14T10:22:24.034Z,957.66
2018-12-14T10:23:24.015Z,957.64
2018-12-14T10:24:23.996Z,957.64
2018-12-14T10:25:23.977Z,957.64
2018-12-14T10:26:23.959Z,957.59
2018-12-14T10:27:23.939Z,957.61
2018-12-14T10:28:23.925Z,957.56
2018-12-14T10:29:23.900Z,957.55
2018-12-14T10:30:23.881Z,957.55
2018-12-14T10:31:23.864Z,957.53
2018-12-14T10:32:23.844Z,957.56
2018-12-14T10:33:23.826Z,957.54
2018-12-14T10:34:23.806Z,957.53
2018-12-14T10:35:23.787Z,957.52
2018-12-14T10:36:23.768Z,957.52
2018-12-14T10:37:23.750Z,957.56
2018-12-14T10:38:23.730Z,957.57
2018-12-14T10:39:23.712Z,957.5
2018-12-14T10:40:23.694Z,957.51
2018-12-14T10:41:23.674Z,957.51
2018-12-14T10:42:23.656Z,957.52
2018-12-14T10:43:23.639Z,957.5
2018-12-14T10:44:23.622Z,957.5
2018-12-14T10:45:23.599Z,957.48
2018-12-14T10:46:23.582Z,957.5
2018-12-14T10:47:23.564Z,957.48
2018-12-14T10:48:23.545Z,957.45
2018-12-14T10:49:23.525Z,957.47
2018-12-14T10:50:23.509Z,957.51
2018-12-14T10:51:23.493Z,957.48
2018-12-14T10:52:23.471Z,957.5
2018-12-14T10:53:23.453Z,957.48
2018-12-14T10:54:23.434Z,957.47
2018-12-14T10:55:23.416Z,957.52
2018-12-14T10:56:23.396Z,957.5
2018-12-14T10:57:23.378Z,957.5
2018-12-14T10:58:23.361Z,957.51
2018-12-14T10:59:23.343Z,957.54
2018-12-14T11:00:23.324Z,957.53
2018-12-14T11:01:23.305Z,957.51
2018-12-14T11:02:23.286Z,957.55
2018-12-14T11:03:23.268Z,957.52
2018-12-14T11:04:23.897Z,957.51
2018-12-14T11:05:23.229Z,957.48
2018-12-14T11:06:23.212Z,957.47
2018-12-14T11:07:23.194Z,957.48
2018-12-14T11:08:23.174Z,957.46
2018-12-14T11:09:23.156Z,957.46
2018-12-14T11:10:23.140Z,957.47
2018-12-14T11:11:23.118Z,957.44
2018-12-14T11:12:23.100Z,957.44
2018-12-14T11:13:23.082Z,957.44
2018-12-14T11:14:23.062Z,957.43
2018-12-14T11:15:23.044Z,957.43
2018-12-14T11:16:23.025Z,957.44
2018-12-14T11:17:23.008Z,957.42
2018-12-14T11:18:22.987Z,957.4
2018-12-14T11:19:22.969Z,957.37
2018-12-14T11:20:22.951Z,957.36
2018-12-14T11:21:22.931Z,957.34
2018-12-14T11:22:22.913Z,957.37
2018-12-14T11:23:22.903Z,957.39
2018-12-14T11:24:22.876Z,957.41
2018-12-14T11:25:22.857Z,957.38
2018-12-14T11:26:22.837Z,957.4
2018-12-14T11:27:22.819Z,957.43
2018-12-14T11:28:22.800Z,957.41
2018-12-14T11:29:22.781Z,957.4
2018-12-14T11:30:22.763Z,957.4
2018-12-14T11:33:45.883Z,957.37
2018-12-14T11:34:45.855Z,957.42
2018-12-14T11:35:45.838Z,957.44
2018-12-14T11:36:45.817Z,957.45
2018-12-14T11:37:45.807Z,957.49
2018-12-14T11:38:45.800Z,957.49
2018-12-14T11:39:45.763Z,957.48
2018-12-14T11:40:45.742Z,957.51
2018-12-14T11:41:45.724Z,957.47
2018-12-14T11:42:45.705Z,957.49
2018-12-14T11:43:45.687Z,957.51
2018-12-14T11:44:45.674Z,957.51
2018-12-14T11:45:45.650Z,957.51
2018-12-14T11:46:45.632Z,957.49
2018-12-14T11:47:45.612Z,957.5
2018-12-14T11:48:45.593Z,957.51
2018-12-14T11:49:45.573Z,957.54
2018-12-14T11:50:45.554Z,957.56
2018-12-14T11:51:45.536Z,957.53
2018-12-14T11:52:45.518Z,957.55
2018-12-14T11:53:45.503Z,957.56
2018-12-14T11:54:45.482Z,957.57
2018-12-14T11:55:45.463Z,957.55
2018-12-14T11:56:45.448Z,957.54
2018-12-14T11:57:45.426Z,957.61
2018-12-14T11:58:45.407Z,957.62
2018-12-14T11:59:45.389Z,957.59
2018-12-14T12:00:45.369Z,957.59
2018-12-14T12:01:45.351Z,957.61
2018-12-14T12:02:45.333Z,957.62
2018-12-14T12:03:45.314Z,957.61
2018-12-14T12:04:45.295Z,957.61
2018-12-14T12:05:45.279Z,957.61
2018-12-14T12:06:45.258Z,957.59
2018-12-14T12:07:45.240Z,957.62
2018-12-14T12:08:45.223Z,957.63
2018-12-14T12:09:45.203Z,957.57
2018-12-14T12:10:45.184Z,957.55
2018-12-14T12:11:45.165Z,957.54
2018-12-14T12:12:45.146Z,957.58
2018-12-14T12:13:45.129Z,957.55
2018-12-14T12:14:45.110Z,957.58
2018-12-14T12:15:45.092Z,957.54
2018-12-14T12:16:45.072Z,957.53
2018-12-14T12:17:49.329Z,957.52
2018-12-14T12:18:45.035Z,957.53
2018-12-14T12:19:45.018Z,957.53
2018-12-14T12:20:44.997Z,957.54
2018-12-14T12:21:44.980Z,957.53
2018-12-14T12:22:44.960Z,957.54
2018-12-14T12:23:44.943Z,957.51
2018-12-14T12:24:44.924Z,957.48
2018-12-14T12:25:44.904Z,957.45
2018-12-14T12:26:44.887Z,957.51
2018-12-14T12:27:44.867Z,957.52
2018-12-14T12:28:44.848Z,957.48
2018-12-14T12:29:44.832Z,957.51
2018-12-14T12:30:44.813Z,957.52
2018-12-14T12:31:44.792Z,957.49
2018-12-14T12:32:44.776Z,957.53
2018-12-14T12:33:44.756Z,957.5